| time (UTC) | temp C | wind direction | speed KPH | gust KPH | rain 1hr cm | rain 24hr cm | rain mn cm | humidity % | barometer mb |
| 20260507211535 | 17 | 186 | 0.0 | 4.8 | 0.00 | 0.64 | 0.48 | 33 | 1005.2 |
| 20260507210030 | 18 | 4 | 0.0 | 8.0 | 0.00 | 0.64 | 0.48 | 33 | 1005.0 |
| 20260507204525 | 18 | 134 | 0.0 | 6.4 | 0.00 | 0.71 | 0.48 | 32 | 1005.1 |
| 20260507203024 | 18 | 137 | 0.0 | 6.4 | 0.00 | 0.71 | 0.48 | 33 | 1005.2 |
| 20260507201522 | 18 | 58 | 1.6 | 8.0 | 0.00 | 0.71 | 0.48 | 32 | 1005.2 |
| 20260507200022 | 18 | 82 | 3.2 | 8.0 | 0.00 | 0.71 | 0.48 | 31 | 1005.3 |
| 20260507194518 | 18 | 29 | 1.6 | 4.8 | 0.00 | 0.71 | 0.48 | 31 | 1005.5 |
| 20260507193017 | 19 | 66 | 1.6 | 6.4 | 0.00 | 0.71 | 0.48 | 32 | 1005.5 |
| 20260507191515 | 19 | 108 | 1.6 | 8.0 | 0.00 | 0.71 | 0.48 | 32 | 1005.7 |
| 20260507190013 | 19 | 114 | 0.0 | 6.4 | 0.00 | 0.71 | 0.48 | 32 | 1005.8 |
| 20260507184512 | 19 | 174 | 0.0 | 8.0 | 0.00 | 0.71 | 0.48 | 35 | 1005.8 |
| 20260507183009 | 19 | 82 | 1.6 | 6.4 | 0.00 | 0.71 | 0.48 | 34 | 1006.1 |
| 20260507181508 | 19 | 127 | 0.0 | 6.4 | 0.00 | 0.71 | 0.48 | 36 | 1006.2 |
| 20260507180007 | 18 | 326 | 1.6 | 8.0 | 0.00 | 0.71 | 0.48 | 35 | 1006.4 |
| 20260507174506 | 18 | 111 | 1.6 | 8.0 | 0.00 | 0.71 | 0.48 | 37 | 1006.3 |
| 20260507173013 | 18 | 118 | 1.6 | 6.4 | 0.00 | 0.71 | 0.48 | 41 | 1006.3 |
| 20260507171506 | 18 | 88 | 1.6 | 8.0 | 0.00 | 0.71 | 0.48 | 41 | 1006.4 |
| 20260507170003 | 19 | 202 | 3.2 | 8.0 | 0.00 | 0.71 | 0.48 | 44 | 1006.5 |
| 20260507164501 | 19 | 114 | 0.0 | 4.8 | 0.00 | 0.71 | 0.48 | 48 | 1006.7 |
| 20260507163117 | 18 | 52 | 1.6 | 9.7 | 0.00 | 0.71 | 0.48 | 49 | 1006.8 |
| 20260507161556 | 18 | 114 | 1.6 | 6.4 | 0.00 | 0.71 | 0.48 | 51 | 1007.0 |
| 20260507160055 | 17 | 147 | 1.6 | 6.4 | 0.00 | 0.71 | 0.48 | 57 | 1007.2 |
| 20260507154549 | 16 | 138 | 0.0 | 6.4 | 0.00 | 0.71 | 0.48 | 60 | 1007.3 |
| 20260507153048 | 16 | 115 | 0.0 | 4.8 | 0.00 | 0.71 | 0.48 | 58 | 1007.5 |
| 20260507151548 | 16 | 143 | 0.0 | 6.4 | 0.00 | 0.71 | 0.48 | 58 | 1007.5 |
| 20260507150046 | 16 | 108 | 0.0 | 3.2 | 0.00 | 0.71 | 0.48 | 58 | 1007.8 |
| 20260507144611 | 16 | 93 | 0.0 | 6.4 | 0.00 | 0.71 | 0.48 | 59 | 1007.8 |
| 20260507143042 | 15 | 72 | 0.0 | 3.2 | 0.00 | 0.71 | 0.48 | 58 | 1008.1 |
| 20260507141543 | 14 | 89 | 0.0 | 4.8 | 0.00 | 0.71 | 0.48 | 62 | 1008.0 |
| 20260507140037 | 13 | 63 | 0.0 | 4.8 | 0.00 | 0.71 | 0.48 | 69 | 1008.2 |
| 20260507134540 | 12 | 79 | 0.0 | 3.2 | 0.00 | 0.71 | 0.48 | 73 | 1008.1 |
| 20260507133037 | 12 | 115 | 0.0 | 4.8 | 0.00 | 0.71 | 0.48 | 78 | 1008.0 |
| 20260507131534 | 11 | 83 | 1.6 | 6.4 | 0.00 | 0.71 | 0.48 | 86 | 1008.2 |
| 20260507130031 | 11 | 136 | 0.0 | 4.8 | 0.00 | 0.71 | 0.48 | 91 | 1008.2 |
| 20260507124531 | 10 | 338 | 0.0 | 3.2 | 0.00 | 0.71 | 0.48 | 93 | 1008.3 |
| 20260507123030 | 10 | 134 | 0.0 | 3.2 | 0.00 | 0.71 | 0.48 | 93 | 1008.6 |
| 20260507121528 | 10 | 128 | 0.0 | 1.6 | 0.00 | 0.71 | 0.48 | 93 | 1008.4 |
| 20260507120027 | 10 | 112 | 0.0 | 3.2 | 0.00 | 0.71 | 0.48 | 93 | 1008.2 |
| 20260507114526 | 9 | 182 | 0.0 | 3.2 | 0.00 | 0.71 | 0.48 | 93 | 1008.3 |
| 20260507113027 | 9 | 122 | 0.0 | 1.6 | 0.03 | 0.71 | 0.48 | 93 | 1008.2 |
| 20260507111538 | 9 | 125 | 0.0 | 0.0 | 0.05 | 0.71 | 0.48 | 93 | 1007.9 |
| 20260507110024 | 9 | 125 | 0.0 | 0.0 | 0.08 | 0.71 | 0.48 | 93 | 1007.9 |
| 20260507104523 | 9 | 125 | 0.0 | 0.0 | 0.10 | 0.71 | 0.48 | 93 | 1007.9 |
| 20260507103022 | 9 | 125 | 0.0 | 0.0 | 0.10 | 0.71 | 0.46 | 93 | 1008.4 |
| 20260507101521 | 9 | 127 | 0.0 | 0.0 | 0.08 | 0.69 | 0.43 | 93 | 1007.9 |
| 20260507100020 | 9 | 127 | 0.0 | 3.2 | 0.10 | 0.66 | 0.41 | 92 | 1008.1 |
| 20260507094517 | 9 | 148 | 0.0 | 0.0 | 0.15 | 0.64 | 0.38 | 92 | 1007.6 |
| 20260507093020 | 10 | 134 | 0.0 | 1.6 | 0.18 | 0.61 | 0.36 | 92 | 1007.7 |
| 20260507091524 | 10 | 114 | 0.0 | 3.2 | 0.23 | 0.61 | 0.36 | 92 | 1007.2 |
| 20260507090017 | 10 | 128 | 0.0 | 4.8 | 0.23 | 0.56 | 0.30 | 91 | 1007.4 |
| 20260507084509 | 10 | 101 | 0.0 | 4.8 | 0.18 | 0.48 | 0.23 | 91 | 1007.5 |
| 20260507083007 | 11 | 112 | 0.0 | 1.6 | 0.15 | 0.41 | 0.15 | 90 | 1007.3 |
| 20260507081510 | 11 | 271 | 0.0 | 3.2 | 0.10 | 0.36 | 0.10 | 90 | 1007.1 |
| 20260507074556 | 12 | 158 | 0.0 | 3.2 | 0.05 | 0.30 | 0.05 | 88 | 1007.2 |
| 20260507073101 | 12 | 105 | 0.0 | 4.8 | 0.00 | 0.25 | 0.00 | 87 | 1006.4 |
| 20260507071555 | 13 | 91 | 0.0 | 4.8 | 0.00 | 0.25 | 0.00 | 88 | 1006.1 |
| 20260507070057 | 13 | 108 | 0.0 | 3.2 | 0.00 | 0.25 | 0.00 | 89 | 1006.2 |
| 20260507064548 | 13 | 106 | 0.0 | 1.6 | 0.00 | 0.25 | 0.00 | 89 | 1006.3 |
| 20260507063050 | 13 | 139 | 0.0 | 1.6 | 0.00 | 0.25 | 0.00 | 90 | 1006.3 |
| 20260507061546 | 13 | 161 | 0.0 | 1.6 | 0.00 | 0.25 | 0.00 | 91 | 1006.0 |
| 20260507060051 | 13 | 143 | 0.0 | 4.8 | 0.00 | 0.25 | 0.00 | 92 | 1006.4 |
| 20260507054548 | 14 | 121 | 0.0 | 3.2 | 0.00 | 0.25 | 0.00 | 93 | 1006.4 |
| 20260507053042 | 15 | 101 | 0.0 | 3.2 | 0.00 | 0.25 | 0.00 | 93 | 1006.6 |
| 20260507051537 | 15 | 110 | 0.0 | 1.6 | 0.00 | 0.25 | 0.00 | 93 | 1006.5 |
| 20260507050037 | 15 | 114 | 0.0 | 3.2 | 0.00 | 0.25 | 0.00 | 92 | 1006.4 |
| 20260507044548 | 15 | 131 | 0.0 | 1.6 | 0.00 | 0.25 | 0.00 | 92 | 1006.5 |
| 20260507043034 | 15 | 103 | 0.0 | 0.0 | 0.00 | 0.25 | 0.00 | 92 | 1006.2 |
| 20260507041532 | 15 | 108 | 0.0 | 1.6 | 0.00 | 0.25 | 0.00 | 92 | 1006.4 |
| 20260507040033 | 15 | 95 | 0.0 | 1.6 | 0.00 | 0.25 | 0.00 | 92 | 1006.5 |
| 20260507034534 | 15 | 46 | 0.0 | 1.6 | 0.00 | 0.25 | 0.25 | 92 | 1006.5 |
| 20260507033028 | 15 | 104 | 0.0 | 6.4 | 0.00 | 0.25 | 0.25 | 92 | 1006.4 |
| 20260507031529 | 14 | 120 | 0.0 | 4.8 | 0.00 | 0.25 | 0.25 | 92 | 1006.2 |
| 20260507030028 | 14 | 52 | 0.0 | 8.0 | 0.00 | 0.25 | 0.25 | 92 | 1006.1 |
| 20260507024526 | 14 | 94 | 0.0 | 1.6 | 0.00 | 0.25 | 0.25 | 92 | 1006.1 |
| 20260507023026 | 14 | 134 | 0.0 | 4.8 | 0.00 | 0.25 | 0.25 | 92 | 1006.0 |
| 20260507021528 | 14 | 55 | 0.0 | 3.2 | 0.00 | 0.25 | 0.25 | 92 | 1006.1 |
| 20260507020032 | 14 | 319 | 0.0 | 1.6 | 0.00 | 0.25 | 0.25 | 92 | 1006.0 |
| 20260507014522 | 14 | 135 | 0.0 | 3.2 | 0.00 | 0.25 | 0.25 | 92 | 1006.2 |
| 20260507013021 | 14 | 84 | 0.0 | 4.8 | 0.00 | 0.25 | 0.25 | 92 | 1006.4 |
| 20260507011521 | 13 | 127 | 0.0 | 6.4 | 0.00 | 0.25 | 0.25 | 92 | 1006.6 |
| 20260507010025 | 13 | 354 | 0.0 | 6.4 | 0.00 | 0.25 | 0.25 | 92 | 1006.6 |
| 20260507004517 | 13 | 106 | 0.0 | 4.8 | 0.03 | 0.25 | 0.25 | 92 | 1006.6 |
| 20260507003026 | 13 | 115 | 0.0 | 6.4 | 0.03 | 0.25 | 0.25 | 92 | 1006.6 |
| 20260507001523 | 13 | 163 | 0.0 | 4.8 | 0.05 | 0.25 | 0.25 | 92 | 1006.5 |
| 20260507000015 | 13 | 142 | 0.0 | 6.4 | 0.05 | 0.25 | 0.25 | 92 | 1006.5 |
| 20260506234514 | 13 | 139 | 0.0 | 4.8 | 0.03 | 0.23 | 0.23 | 92 | 1006.3 |
| 20260506233013 | 14 | 130 | 1.6 | 8.0 | 0.03 | 0.23 | 0.23 | 92 | 1006.2 |
| 20260506231513 | 14 | 143 | 0.0 | 4.8 | 0.00 | 0.20 | 0.20 | 92 | 1006.3 |
| 20260506230009 | 14 | 333 | 0.0 | 4.8 | 0.00 | 0.20 | 0.20 | 92 | 1006.5 |
| 20260506224508 | 14 | 138 | 0.0 | 6.4 | 0.03 | 0.20 | 0.20 | 92 | 1006.4 |
| 20260506223005 | 15 | 40 | 0.0 | 3.2 | 0.03 | 0.20 | 0.20 | 92 | 1006.7 |
| 20260506221505 | 15 | 165 | 1.6 | 8.0 | 0.05 | 0.20 | 0.20 | 92 | 1006.8 |
| 20260506220004 | 15 | 169 | 0.0 | 3.2 | 0.10 | 0.20 | 0.20 | 91 | 1006.9 |
| 20260506214504 | 15 | 116 | 0.0 | 4.8 | 0.13 | 0.18 | 0.18 | 91 | 1007.2 |
| 20260506213004 | 15 | 68 | 0.0 | 6.4 | 0.15 | 0.18 | 0.18 | 91 | 1007.1 |